sensor_id;sensor_type;location;lat;lon;timestamp;temperature;humidity
8481;DHT22;4277;51.354;6.740;2022-08-19T06:29:58;20.40;99.90
8481;DHT22;4277;51.354;6.740;2022-08-19T06:32:24;19.00;99.90
8481;DHT22;4277;51.354;6.740;2022-08-19T06:34:50;19.10;99.90
8481;DHT22;4277;51.354;6.740;2022-08-19T06:37:16;19.10;99.90
8481;DHT22;4277;51.354;6.740;2022-08-19T06:39:43;19.10;99.90
8481;DHT22;4277;51.354;6.740;2022-08-19T06:42:10;19.20;99.90
8481;DHT22;4277;51.354;6.740;2022-08-19T06:44:40;19.20;99.90
8481;DHT22;4277;51.354;6.740;2022-08-19T06:47:08;19.20;99.90
8481;DHT22;4277;51.354;6.740;2022-08-19T06:49:34;19.30;99.90
8481;DHT22;4277;51.354;6.740;2022-08-19T06:52:01;19.30;99.90
8481;DHT22;4277;51.354;6.740;2022-08-19T06:54:28;19.30;99.90
8481;DHT22;4277;51.354;6.740;2022-08-19T06:56:55;19.50;99.90
8481;DHT22;4277;51.354;6.740;2022-08-19T06:59:23;19.50;99.90
8481;DHT22;4277;51.354;6.740;2022-08-19T07:01:54;19.50;99.90
8481;DHT22;4277;51.354;6.740;2022-08-19T07:04:24;19.60;99.90
8481;DHT22;4277;51.354;6.740;2022-08-19T07:07:00;19.60;99.90
8481;DHT22;4277;51.354;6.740;2022-08-19T07:09:26;19.80;99.90
8481;DHT22;4277;51.354;6.740;2022-08-19T07:11:54;19.70;99.90
8481;DHT22;4277;51.354;6.740;2022-08-19T07:14:36;20.00;99.90
8481;DHT22;4277;51.354;6.740;2022-08-19T07:17:05;20.00;99.90
8481;DHT22;4277;51.354;6.740;2022-08-19T07:19:31;20.10;99.90
8481;DHT22;4277;51.354;6.740;2022-08-19T07:21:57;20.20;99.90
8481;DHT22;4277;51.354;6.740;2022-08-19T07:24:26;20.20;99.90
8481;DHT22;4277;51.354;6.740;2022-08-19T07:26:55;20.30;99.90
8481;DHT22;4277;51.354;6.740;2022-08-19T07:29:22;20.30;99.90
8481;DHT22;4277;51.354;6.740;2022-08-19T07:31:53;20.40;99.90
8481;DHT22;4277;51.354;6.740;2022-08-19T07:34:22;20.50;99.90
8481;DHT22;4277;51.354;6.740;2022-08-19T07:36:48;20.70;99.90
8481;DHT22;4277;51.354;6.740;2022-08-19T07:39:24;20.90;99.90
8481;DHT22;4277;51.354;6.740;2022-08-19T07:41:50;20.90;99.90
8481;DHT22;4277;51.354;6.740;2022-08-19T07:44:16;21.00;99.90
8481;DHT22;4277;51.354;6.740;2022-08-19T07:46:44;21.00;99.90
8481;DHT22;4277;51.354;6.740;2022-08-19T07:49:12;21.00;99.90
8481;DHT22;4277;51.354;6.740;2022-08-19T07:51:44;21.00;99.90
8481;DHT22;4277;51.354;6.740;2022-08-19T07:54:10;21.10;99.90
8481;DHT22;4277;51.354;6.740;2022-08-19T07:56:37;21.10;99.90
8481;DHT22;4277;51.354;6.740;2022-08-19T07:59:03;21.20;99.90
8481;DHT22;4277;51.354;6.740;2022-08-19T08:01:28;21.20;99.90
8481;DHT22;4277;51.354;6.740;2022-08-19T08:04:07;21.30;99.90
8481;DHT22;4277;51.354;6.740;2022-08-19T08:07:05;21.50;99.90
8481;DHT22;4277;51.354;6.740;2022-08-19T08:09:50;21.50;99.90
8481;DHT22;4277;51.354;6.740;2022-08-19T08:12:26;21.70;99.90
8481;DHT22;4277;51.354;6.740;2022-08-19T08:14:57;21.70;99.90
8481;DHT22;4277;51.354;6.740;2022-08-19T08:17:25;21.70;99.90
8481;DHT22;4277;51.354;6.740;2022-08-19T08:19:51;21.70;99.90
8481;DHT22;4277;51.354;6.740;2022-08-19T08:22:19;21.70;99.90
8481;DHT22;4277;51.354;6.740;2022-08-19T08:25:16;21.70;99.90
8481;DHT22;4277;51.354;6.740;2022-08-19T08:27:44;21.70;99.90
8481;DHT22;4277;51.354;6.740;2022-08-19T08:30:18;21.70;99.90
8481;DHT22;4277;51.354;6.740;2022-08-19T08:32:45;21.80;99.90
8481;DHT22;4277;51.354;6.740;2022-08-19T08:35:14;21.90;99.90
8481;DHT22;4277;51.354;6.740;2022-08-19T08:37:39;22.00;99.90
8481;DHT22;4277;51.354;6.740;2022-08-19T08:43:35;22.10;99.90
8481;DHT22;4277;51.354;6.740;2022-08-19T08:45:38;22.10;99.90
8481;DHT22;4277;51.354;6.740;2022-08-19T08:48:21;22.10;99.90
8481;DHT22;4277;51.354;6.740;2022-08-19T08:50:49;22.20;99.90
8481;DHT22;4277;51.354;6.740;2022-08-19T08:53:19;22.20;99.90
8481;DHT22;4277;51.354;6.740;2022-08-19T08:55:46;22.20;99.90
8481;DHT22;4277;51.354;6.740;2022-08-19T08:58:17;22.30;99.90
8481;DHT22;4277;51.354;6.740;2022-08-19T09:00:47;22.30;99.90
8481;DHT22;4277;51.354;6.740;2022-08-19T09:03:24;22.40;99.90
8481;DHT22;4277;51.354;6.740;2022-08-19T09:11:24;22.50;99.90
8481;DHT22;4277;51.354;6.740;2022-08-19T09:16:58;22.60;99.90
8481;DHT22;4277;51.354;6.740;2022-08-19T09:19:25;22.60;99.90
8481;DHT22;4277;51.354;6.740;2022-08-19T09:21:50;22.60;99.90
8481;DHT22;4277;51.354;6.740;2022-08-19T09:24:16;22.60;99.90
8481;DHT22;4277;51.354;6.740;2022-08-19T09:26:42;22.70;99.90
8481;DHT22;4277;51.354;6.740;2022-08-19T09:29:09;22.70;99.90
8481;DHT22;4277;51.354;6.740;2022-08-19T09:31:35;22.80;99.90
8481;DHT22;4277;51.354;6.740;2022-08-19T09:34:01;22.70;99.90
8481;DHT22;4277;51.354;6.740;2022-08-19T09:36:30;22.80;99.90
8481;DHT22;4277;51.354;6.740;2022-08-19T09:38:58;22.80;99.90
8481;DHT22;4277;51.354;6.740;2022-08-19T09:41:25;22.90;99.90
8481;DHT22;4277;51.354;6.740;2022-08-19T09:43:53;22.90;99.90
8481;DHT22;4277;51.354;6.740;2022-08-19T09:46:22;23.00;99.90
8481;DHT22;4277;51.354;6.740;2022-08-19T09:48:49;23.00;99.90
8481;DHT22;4277;51.354;6.740;2022-08-19T09:51:18;23.10;99.90
8481;DHT22;4277;51.354;6.740;2022-08-19T09:53:46;23.10;97.20
8481;DHT22;4277;51.354;6.740;2022-08-19T09:56:13;23.10;97.50
8481;DHT22;4277;51.354;6.740;2022-08-19T09:58:40;23.00;99.90
8481;DHT22;4277;51.354;6.740;2022-08-19T10:32:59;23.80;89.10
8481;DHT22;4277;51.354;6.740;2022-08-19T10:35:24;23.80;93.10
8481;DHT22;4277;51.354;6.740;2022-08-19T10:37:53;23.80;92.50
8481;DHT22;4277;51.354;6.740;2022-08-19T10:40:18;24.10;91.00
8481;DHT22;4277;51.354;6.740;2022-08-19T10:50:03;24.60;99.90
8481;DHT22;4277;51.354;6.740;2022-08-19T10:52:49;24.60;77.90
8481;DHT22;4277;51.354;6.740;2022-08-19T10:55:15;24.60;79.00
8481;DHT22;4277;51.354;6.740;2022-08-19T10:57:59;24.70;75.20
8481;DHT22;4277;51.354;6.740;2022-08-19T11:00:25;24.60;67.50
8481;DHT22;4277;51.354;6.740;2022-08-19T11:02:51;24.60;72.30
8481;DHT22;4277;51.354;6.740;2022-08-19T11:05:17;24.60;73.60
8481;DHT22;4277;51.354;6.740;2022-08-19T11:07:44;24.60;69.30
8481;DHT22;4277;51.354;6.740;2022-08-19T11:10:11;24.60;71.90
8481;DHT22;4277;51.354;6.740;2022-08-19T11:12:38;24.60;69.50
8481;DHT22;4277;51.354;6.740;2022-08-19T11:15:05;24.70;61.80
8481;DHT22;4277;51.354;6.740;2022-08-19T11:17:40;24.60;63.40
8481;DHT22;4277;51.354;6.740;2022-08-19T11:20:07;24.80;63.40
8481;DHT22;4277;51.354;6.740;2022-08-19T11:22:33;24.80;59.30
8481;DHT22;4277;51.354;6.740;2022-08-19T11:25:00;24.80;56.90
8481;DHT22;4277;51.354;6.740;2022-08-19T11:27:25;24.90;58.80
8481;DHT22;4277;51.354;6.740;2022-08-19T11:29:51;24.80;61.20
8481;DHT22;4277;51.354;6.740;2022-08-19T11:32:18;24.70;60.80
8481;DHT22;4277;51.354;6.740;2022-08-19T11:34:43;24.90;52.50
8481;DHT22;4277;51.354;6.740;2022-08-19T11:37:09;25.00;48.50
8481;DHT22;4277;51.354;6.740;2022-08-19T11:39:35;25.00;45.80
8481;DHT22;4277;51.354;6.740;2022-08-19T11:42:03;25.00;44.80
8481;DHT22;4277;51.354;6.740;2022-08-19T11:44:49;25.00;47.40
8481;DHT22;4277;51.354;6.740;2022-08-19T11:47:15;25.10;46.10
8481;DHT22;4277;51.354;6.740;2022-08-19T12:31:17;25.50;88.60
8481;DHT22;4277;51.354;6.740;2022-08-19T12:33:45;25.70;24.90
8481;DHT22;4277;51.354;6.740;2022-08-19T12:36:13;25.80;24.60
8481;DHT22;4277;51.354;6.740;2022-08-19T12:38:40;25.90;22.10
8481;DHT22;4277;51.354;6.740;2022-08-19T12:41:06;26.10;14.90
8481;DHT22;4277;51.354;6.740;2022-08-19T12:43:34;26.10;18.30
8481;DHT22;4277;51.354;6.740;2022-08-19T12:46:00;26.20;19.40
8481;DHT22;4277;51.354;6.740;2022-08-19T12:48:26;26.10;17.60
8481;DHT22;4277;51.354;6.740;2022-08-19T12:50:52;26.10;24.00
8481;DHT22;4277;51.354;6.740;2022-08-19T12:53:19;26.10;24.60
8481;DHT22;4277;51.354;6.740;2022-08-19T12:55:45;26.00;25.20
8481;DHT22;4277;51.354;6.740;2022-08-19T12:58:11;26.10;18.30
8481;DHT22;4277;51.354;6.740;2022-08-19T13:00:38;26.00;19.50
8481;DHT22;4277;51.354;6.740;2022-08-19T13:03:03;26.00;18.60
8481;DHT22;4277;51.354;6.740;2022-08-19T13:05:31;25.90;11.60
8481;DHT22;4277;51.354;6.740;2022-08-19T13:07:59;26.00;14.90
8481;DHT22;4277;51.354;6.740;2022-08-19T13:10:32;26.20;11.10
8481;DHT22;4277;51.354;6.740;2022-08-19T13:13:02;26.30;3.50
8481;DHT22;4277;51.354;6.740;2022-08-19T13:15:29;26.40;5.50
8481;DHT22;4277;51.354;6.740;2022-08-19T13:17:57;26.50;12.10
8481;DHT22;4277;51.354;6.740;2022-08-19T13:20:24;26.50;7.40
8481;DHT22;4277;51.354;6.740;2022-08-19T13:22:50;26.50;4.70
8481;DHT22;4277;51.354;6.740;2022-08-19T13:25:17;26.50;3.60
8481;DHT22;4277;51.354;6.740;2022-08-19T13:27:45;26.50;5.00
8481;DHT22;4277;51.354;6.740;2022-08-19T13:30:12;26.50;4.60
8481;DHT22;4277;51.354;6.740;2022-08-19T13:32:57;26.60;1.00
8481;DHT22;4277;51.354;6.740;2022-08-19T13:35:48;26.80;1.00
8481;DHT22;4277;51.354;6.740;2022-08-19T13:38:17;26.90;22.60
8481;DHT22;4277;51.354;6.740;2022-08-19T13:40:43;26.90;19.80
8481;DHT22;4277;51.354;6.740;2022-08-19T13:43:08;27.00;20.20
8481;DHT22;4277;51.354;6.740;2022-08-19T13:48:03;27.10;4.70
8481;DHT22;4277;51.354;6.740;2022-08-19T13:50:41;27.10;1.00
8481;DHT22;4277;51.354;6.740;2022-08-19T13:53:09;27.00;1.00
8481;DHT22;4277;51.354;6.740;2022-08-19T13:55:37;27.00;1.00
8481;DHT22;4277;51.354;6.740;2022-08-19T13:58:03;27.10;1.00
8481;DHT22;4277;51.354;6.740;2022-08-19T14:00:33;27.10;1.00
8481;DHT22;4277;51.354;6.740;2022-08-19T14:02:59;27.10;2.40
8481;DHT22;4277;51.354;6.740;2022-08-19T14:05:26;27.10;1.20
8481;DHT22;4277;51.354;6.740;2022-08-19T14:07:52;27.30;1.00
8481;DHT22;4277;51.354;6.740;2022-08-19T14:10:19;27.30;1.00
8481;DHT22;4277;51.354;6.740;2022-08-19T14:12:46;27.30;2.60
8481;DHT22;4277;51.354;6.740;2022-08-19T14:15:12;27.30;1.00
8481;DHT22;4277;51.354;6.740;2022-08-19T14:17:40;27.40;4.10
8481;DHT22;4277;51.354;6.740;2022-08-19T14:20:08;27.50;5.00
8481;DHT22;4277;51.354;6.740;2022-08-19T14:22:40;27.50;1.00
8481;DHT22;4277;51.354;6.740;2022-08-19T14:25:11;27.60;3.00
8481;DHT22;4277;51.354;6.740;2022-08-19T14:27:38;27.50;1.90
8481;DHT22;4277;51.354;6.740;2022-08-19T14:30:05;27.60;3.70
8481;DHT22;4277;51.354;6.740;2022-08-19T14:32:32;27.60;3.40
8481;DHT22;4277;51.354;6.740;2022-08-19T14:34:58;27.60;1.10
8481;DHT22;4277;51.354;6.740;2022-08-19T14:37:23;27.70;2.20
8481;DHT22;4277;51.354;6.740;2022-08-19T14:39:49;27.60;2.50
8481;DHT22;4277;51.354;6.740;2022-08-19T14:42:15;27.50;1.00
8481;DHT22;4277;51.354;6.740;2022-08-19T14:44:42;27.50;1.10
8481;DHT22;4277;51.354;6.740;2022-08-19T14:47:08;27.50;1.00
8481;DHT22;4277;51.354;6.740;2022-08-19T14:49:34;27.60;1.00
8481;DHT22;4277;51.354;6.740;2022-08-19T14:52:00;27.70;1.00
8481;DHT22;4277;51.354;6.740;2022-08-19T14:54:30;27.70;1.00
8481;DHT22;4277;51.354;6.740;2022-08-19T14:56:56;27.80;1.00
8481;DHT22;4277;51.354;6.740;2022-08-19T14:59:22;27.80;1.00
8481;DHT22;4277;51.354;6.740;2022-08-19T15:01:47;27.80;1.00
8481;DHT22;4277;51.354;6.740;2022-08-19T15:04:13;27.60;1.00
8481;DHT22;4277;51.354;6.740;2022-08-19T15:06:38;27.70;1.00
8481;DHT22;4277;51.354;6.740;2022-08-19T15:09:04;27.70;1.00
8481;DHT22;4277;51.354;6.740;2022-08-19T15:11:31;27.70;1.00
8481;DHT22;4277;51.354;6.740;2022-08-19T15:13:58;27.90;1.00
8481;DHT22;4277;51.354;6.740;2022-08-19T15:16:24;27.90;1.00
8481;DHT22;4277;51.354;6.740;2022-08-19T15:18:53;27.90;1.00
8481;DHT22;4277;51.354;6.740;2022-08-19T15:21:19;27.80;1.00
8481;DHT22;4277;51.354;6.740;2022-08-19T15:23:46;27.70;1.00
8481;DHT22;4277;51.354;6.740;2022-08-19T15:26:13;27.80;1.00
8481;DHT22;4277;51.354;6.740;2022-08-19T15:28:39;27.90;1.00
8481;DHT22;4277;51.354;6.740;2022-08-19T15:31:05;27.80;1.00
8481;DHT22;4277;51.354;6.740;2022-08-19T15:33:35;27.80;1.00
8481;DHT22;4277;51.354;6.740;2022-08-19T15:36:08;27.90;1.00
8481;DHT22;4277;51.354;6.740;2022-08-19T16:31:21;29.30;1.00
8481;DHT22;4277;51.354;6.740;2022-08-19T16:33:47;29.60;1.00
8481;DHT22;4277;51.354;6.740;2022-08-19T16:36:13;29.10;1.00
8481;DHT22;4277;51.354;6.740;2022-08-19T16:38:38;28.90;1.00
8481;DHT22;4277;51.354;6.740;2022-08-19T16:41:04;28.30;1.00
8481;DHT22;4277;51.354;6.740;2022-08-19T16:43:31;27.90;1.00
8481;DHT22;4277;51.354;6.740;2022-08-19T16:45:57;27.50;1.00
8481;DHT22;4277;51.354;6.740;2022-08-19T16:48:26;27.20;1.00
8481;DHT22;4277;51.354;6.740;2022-08-19T16:50:54;26.90;1.00
8481;DHT22;4277;51.354;6.740;2022-08-19T16:53:22;26.70;3.60
8481;DHT22;4277;51.354;6.740;2022-08-19T16:55:50;26.50;5.50
8481;DHT22;4277;51.354;6.740;2022-08-19T16:58:19;26.40;8.10
8481;DHT22;4277;51.354;6.740;2022-08-19T17:00:45;26.30;8.30
8481;DHT22;4277;51.354;6.740;2022-08-19T17:03:12;26.40;10.70
8481;DHT22;4277;51.354;6.740;2022-08-19T17:08:07;27.00;7.70
8481;DHT22;4277;51.354;6.740;2022-08-19T17:10:33;27.10;5.90
8481;DHT22;4277;51.354;6.740;2022-08-19T17:12:58;27.10;5.40
8481;DHT22;4277;51.354;6.740;2022-08-19T17:15:24;26.90;5.20
8481;DHT22;4277;51.354;6.740;2022-08-19T17:17:50;26.60;7.20
8481;DHT22;4277;51.354;6.740;2022-08-19T17:20:17;26.40;8.40
8481;DHT22;4277;51.354;6.740;2022-08-19T17:22:44;26.20;11.40
8481;DHT22;4277;51.354;6.740;2022-08-19T17:25:09;26.10;11.50
8481;DHT22;4277;51.354;6.740;2022-08-19T17:27:35;25.90;11.70
8481;DHT22;4277;51.354;6.740;2022-08-19T17:30:04;25.80;12.90
8481;DHT22;4277;51.354;6.740;2022-08-19T17:32:31;25.70;14.00
8481;DHT22;4277;51.354;6.740;2022-08-19T17:34:59;25.60;15.60
8481;DHT22;4277;51.354;6.740;2022-08-19T17:37:25;25.50;19.50
8481;DHT22;4277;51.354;6.740;2022-08-19T17:39:50;25.40;21.90
8481;DHT22;4277;51.354;6.740;2022-08-19T17:42:16;25.40;25.10
8481;DHT22;4277;51.354;6.740;2022-08-19T17:44:41;25.20;27.60
8481;DHT22;4277;51.354;6.740;2022-08-19T17:47:07;25.10;30.70
8481;DHT22;4277;51.354;6.740;2022-08-19T17:49:33;25.10;33.50
8481;DHT22;4277;51.354;6.740;2022-08-19T17:51:59;25.10;35.90
8481;DHT22;4277;51.354;6.740;2022-08-19T17:54:25;25.10;39.20
8481;DHT22;4277;51.354;6.740;2022-08-19T17:56:50;25.00;41.80
8481;DHT22;4277;51.354;6.740;2022-08-19T17:59:17;24.90;53.10
8481;DHT22;4277;51.354;6.740;2022-08-19T18:01:44;24.80;63.10
8481;DHT22;4277;51.354;6.740;2022-08-19T18:04:10;24.70;64.70
8481;DHT22;4277;51.354;6.740;2022-08-19T18:06:37;24.60;76.10
8481;DHT22;4277;51.354;6.740;2022-08-19T18:09:06;24.40;87.20
8481;DHT22;4277;51.354;6.740;2022-08-19T18:11:32;24.30;93.70
8481;DHT22;4277;51.354;6.740;2022-08-19T18:13:58;24.10;95.70
8481;DHT22;4277;51.354;6.740;2022-08-19T18:16:24;24.20;96.60
8481;DHT22;4277;51.354;6.740;2022-08-19T18:18:49;24.10;99.90
8481;DHT22;4277;51.354;6.740;2022-08-19T18:21:17;24.00;99.90
8481;DHT22;4277;51.354;6.740;2022-08-19T18:23:43;24.00;99.90
8481;DHT22;4277;51.354;6.740;2022-08-19T18:26:09;23.90;99.90
8481;DHT22;4277;51.354;6.740;2022-08-19T18:28:34;23.90;99.90
8481;DHT22;4277;51.354;6.740;2022-08-19T18:31:00;23.90;99.90
8481;DHT22;4277;51.354;6.740;2022-08-19T18:33:28;23.90;99.90
8481;DHT22;4277;51.354;6.740;2022-08-19T18:35:53;23.90;99.90
8481;DHT22;4277;51.354;6.740;2022-08-19T18:38:20;23.90;99.90
8481;DHT22;4277;51.354;6.740;2022-08-19T18:41:05;23.80;99.90
8481;DHT22;4277;51.354;6.740;2022-08-19T18:43:50;23.80;99.90
8481;DHT22;4277;51.354;6.740;2022-08-19T18:46:34;23.80;99.90
8481;DHT22;4277;51.354;6.740;2022-08-19T18:49:26;23.80;99.90
8481;DHT22;4277;51.354;6.740;2022-08-19T18:51:52;23.90;99.90
8481;DHT22;4277;51.354;6.740;2022-08-19T18:54:18;23.70;99.90
8481;DHT22;4277;51.354;6.740;2022-08-19T18:56:44;23.80;99.90
8481;DHT22;4277;51.354;6.740;2022-08-19T18:59:11;23.80;99.90
8481;DHT22;4277;51.354;6.740;2022-08-19T19:01:40;23.80;99.90
8481;DHT22;4277;51.354;6.740;2022-08-19T19:04:11;23.80;99.90
8481;DHT22;4277;51.354;6.740;2022-08-19T19:06:38;23.80;99.90
8481;DHT22;4277;51.354;6.740;2022-08-19T19:09:20;23.80;99.90
8481;DHT22;4277;51.354;6.740;2022-08-19T19:11:49;23.80;99.90
8481;DHT22;4277;51.354;6.740;2022-08-19T19:14:19;23.80;99.90
8481;DHT22;4277;51.354;6.740;2022-08-19T19:16:46;23.80;99.90
8481;DHT22;4277;51.354;6.740;2022-08-19T19:19:13;23.80;99.90
8481;DHT22;4277;51.354;6.740;2022-08-19T19:21:44;23.80;99.90
8481;DHT22;4277;51.354;6.740;2022-08-19T19:24:31;23.80;99.90
8481;DHT22;4277;51.354;6.740;2022-08-19T19:26:59;23.80;99.90
8481;DHT22;4277;51.354;6.740;2022-08-19T19:29:29;23.90;99.90
8481;DHT22;4277;51.354;6.740;2022-08-19T19:31:55;23.70;99.90
8481;DHT22;4277;51.354;6.740;2022-08-19T19:34:21;23.70;99.90
8481;DHT22;4277;51.354;6.740;2022-08-19T19:36:48;23.60;99.90
8481;DHT22;4277;51.354;6.740;2022-08-19T19:39:15;23.60;99.90
8481;DHT22;4277;51.354;6.740;2022-08-19T19:41:41;23.60;99.90
8481;DHT22;4277;51.354;6.740;2022-08-19T19:44:06;23.60;99.90
8481;DHT22;4277;51.354;6.740;2022-08-19T19:46:33;23.60;99.90
8481;DHT22;4277;51.354;6.740;2022-08-19T19:48:59;23.60;99.90
8481;DHT22;4277;51.354;6.740;2022-08-19T19:51:25;23.50;99.90
8481;DHT22;4277;51.354;6.740;2022-08-19T19:53:51;23.50;99.90
8481;DHT22;4277;51.354;6.740;2022-08-19T19:56:19;23.40;99.90
8481;DHT22;4277;51.354;6.740;2022-08-19T19:58:45;23.50;99.90
8481;DHT22;4277;51.354;6.740;2022-08-19T20:01:10;23.60;99.90
8481;DHT22;4277;51.354;6.740;2022-08-19T20:03:40;23.40;99.90
8481;DHT22;4277;51.354;6.740;2022-08-19T20:06:07;23.40;99.90
8481;DHT22;4277;51.354;6.740;2022-08-19T20:08:34;23.40;99.90
8481;DHT22;4277;51.354;6.740;2022-08-19T20:11:40;23.30;99.90
8481;DHT22;4277;51.354;6.740;2022-08-19T20:14:12;23.20;99.90
8481;DHT22;4277;51.354;6.740;2022-08-19T20:16:40;23.20;99.90
8481;DHT22;4277;51.354;6.740;2022-08-19T20:19:09;23.20;99.90
8481;DHT22;4277;51.354;6.740;2022-08-19T20:21:37;23.10;99.90
8481;DHT22;4277;51.354;6.740;2022-08-19T20:24:09;23.10;99.90
8481;DHT22;4277;51.354;6.740;2022-08-19T20:26:35;23.10;99.90
8481;DHT22;4277;51.354;6.740;2022-08-19T20:29:01;23.10;99.90
8481;DHT22;4277;51.354;6.740;2022-08-19T20:31:26;23.00;99.90
8481;DHT22;4277;51.354;6.740;2022-08-19T20:33:52;22.90;99.90
8481;DHT22;4277;51.354;6.740;2022-08-19T20:36:18;22.90;99.90
8481;DHT22;4277;51.354;6.740;2022-08-19T20:38:44;22.90;99.90
8481;DHT22;4277;51.354;6.740;2022-08-19T20:41:10;22.90;99.90
8481;DHT22;4277;51.354;6.740;2022-08-19T20:43:37;23.00;99.90
8481;DHT22;4277;51.354;6.740;2022-08-19T20:46:04;22.90;99.90
8481;DHT22;4277;51.354;6.740;2022-08-19T20:48:30;22.90;99.90
8481;DHT22;4277;51.354;6.740;2022-08-19T20:50:56;22.80;99.90
8481;DHT22;4277;51.354;6.740;2022-08-19T20:53:24;22.80;99.90
8481;DHT22;4277;51.354;6.740;2022-08-19T20:55:51;22.80;99.90
8481;DHT22;4277;51.354;6.740;2022-08-19T20:58:19;22.70;99.90
8481;DHT22;4277;51.354;6.740;2022-08-19T21:03:17;22.40;99.90
8481;DHT22;4277;51.354;6.740;2022-08-19T21:06:00;22.50;99.90
8481;DHT22;4277;51.354;6.740;2022-08-19T21:08:26;22.50;99.90
8481;DHT22;4277;51.354;6.740;2022-08-19T21:10:54;22.30;99.90
8481;DHT22;4277;51.354;6.740;2022-08-19T21:13:22;22.40;99.90
8481;DHT22;4277;51.354;6.740;2022-08-19T21:15:48;22.30;99.90
8481;DHT22;4277;51.354;6.740;2022-08-19T21:18:16;22.20;99.90
8481;DHT22;4277;51.354;6.740;2022-08-19T21:20:44;22.20;99.90
8481;DHT22;4277;51.354;6.740;2022-08-19T21:23:12;22.20;99.90
8481;DHT22;4277;51.354;6.740;2022-08-19T21:25:38;22.20;99.90
8481;DHT22;4277;51.354;6.740;2022-08-19T21:28:04;22.10;99.90
8481;DHT22;4277;51.354;6.740;2022-08-19T21:30:30;22.20;99.90
8481;DHT22;4277;51.354;6.740;2022-08-19T21:32:58;22.20;99.90
8481;DHT22;4277;51.354;6.740;2022-08-19T21:35:24;22.20;99.90
8481;DHT22;4277;51.354;6.740;2022-08-19T21:37:50;22.20;99.90
8481;DHT22;4277;51.354;6.740;2022-08-19T21:40:17;22.20;99.90
8481;DHT22;4277;51.354;6.740;2022-08-19T21:42:43;22.20;99.90
8481;DHT22;4277;51.354;6.740;2022-08-19T21:45:11;22.20;99.90
8481;DHT22;4277;51.354;6.740;2022-08-19T21:47:37;22.20;99.90
8481;DHT22;4277;51.354;6.740;2022-08-19T21:50:04;22.10;99.90
8481;DHT22;4277;51.354;6.740;2022-08-19T21:52:30;22.20;99.90
8481;DHT22;4277;51.354;6.740;2022-08-19T21:54:56;22.20;99.90
8481;DHT22;4277;51.354;6.740;2022-08-19T21:57:22;22.10;99.90
8481;DHT22;4277;51.354;6.740;2022-08-19T21:59:51;22.20;99.90
8481;DHT22;4277;51.354;6.740;2022-08-19T22:02:17;22.10;99.90
8481;DHT22;4277;51.354;6.740;2022-08-19T22:04:43;22.10;99.90
8481;DHT22;4277;51.354;6.740;2022-08-19T22:07:10;22.10;99.90
8481;DHT22;4277;51.354;6.740;2022-08-19T22:09:39;22.00;99.90
8481;DHT22;4277;51.354;6.740;2022-08-19T22:12:09;22.10;99.90
8481;DHT22;4277;51.354;6.740;2022-08-19T22:14:36;22.10;99.90
8481;DHT22;4277;51.354;6.740;2022-08-19T22:17:01;22.00;99.90
8481;DHT22;4277;51.354;6.740;2022-08-19T22:19:27;22.00;99.90
8481;DHT22;4277;51.354;6.740;2022-08-19T22:21:56;22.00;99.90
8481;DHT22;4277;51.354;6.740;2022-08-19T22:24:22;22.00;99.90
8481;DHT22;4277;51.354;6.740;2022-08-19T22:26:48;22.00;99.90
8481;DHT22;4277;51.354;6.740;2022-08-19T22:29:14;22.00;99.90
8481;DHT22;4277;51.354;6.740;2022-08-19T22:31:41;22.00;99.90
8481;DHT22;4277;51.354;6.740;2022-08-19T22:34:07;22.00;99.90
8481;DHT22;4277;51.354;6.740;2022-08-19T22:36:32;21.90;99.90
8481;DHT22;4277;51.354;6.740;2022-08-19T22:38:58;22.00;99.90
8481;DHT22;4277;51.354;6.740;2022-08-19T22:41:25;22.00;99.90
8481;DHT22;4277;51.354;6.740;2022-08-19T22:43:52;22.00;99.90
8481;DHT22;4277;51.354;6.740;2022-08-19T22:46:18;22.10;99.90
8481;DHT22;4277;51.354;6.740;2022-08-19T22:48:45;22.00;99.90
8481;DHT22;4277;51.354;6.740;2022-08-19T22:51:10;22.00;99.90
8481;DHT22;4277;51.354;6.740;2022-08-19T22:53:55;21.90;99.90
8481;DHT22;4277;51.354;6.740;2022-08-19T22:56:21;21.90;99.90
8481;DHT22;4277;51.354;6.740;2022-08-19T22:58:47;21.90;99.90
8481;DHT22;4277;51.354;6.740;2022-08-19T23:01:16;21.90;99.90
8481;DHT22;4277;51.354;6.740;2022-08-19T23:03:42;21.90;99.90
8481;DHT22;4277;51.354;6.740;2022-08-19T23:06:08;21.90;99.90
8481;DHT22;4277;51.354;6.740;2022-08-19T23:08:34;21.80;99.90
8481;DHT22;4277;51.354;6.740;2022-08-19T23:11:02;21.90;99.90
8481;DHT22;4277;51.354;6.740;2022-08-19T23:13:28;21.90;99.90
8481;DHT22;4277;51.354;6.740;2022-08-19T23:15:56;21.90;99.90
8481;DHT22;4277;51.354;6.740;2022-08-19T23:18:23;21.80;99.90
8481;DHT22;4277;51.354;6.740;2022-08-19T23:20:49;21.80;99.90
8481;DHT22;4277;51.354;6.740;2022-08-19T23:23:17;21.80;99.90
8481;DHT22;4277;51.354;6.740;2022-08-19T23:25:44;21.70;99.90
8481;DHT22;4277;51.354;6.740;2022-08-19T23:28:09;21.70;99.90
8481;DHT22;4277;51.354;6.740;2022-08-19T23:30:54;21.70;99.90
8481;DHT22;4277;51.354;6.740;2022-08-19T23:33:23;21.70;99.90
8481;DHT22;4277;51.354;6.740;2022-08-19T23:36:00;21.60;99.90
8481;DHT22;4277;51.354;6.740;2022-08-19T23:38:29;21.70;99.90
8481;DHT22;4277;51.354;6.740;2022-08-19T23:41:00;21.70;99.90
8481;DHT22;4277;51.354;6.740;2022-08-19T23:43:27;21.70;99.90
8481;DHT22;4277;51.354;6.740;2022-08-19T23:45:55;21.70;99.90
8481;DHT22;4277;51.354;6.740;2022-08-19T23:48:21;21.60;99.90
8481;DHT22;4277;51.354;6.740;2022-08-19T23:50:47;21.60;99.90
8481;DHT22;4277;51.354;6.740;2022-08-19T23:53:13;21.50;99.90
8481;DHT22;4277;51.354;6.740;2022-08-19T23:55:42;21.50;99.90
8481;DHT22;4277;51.354;6.740;2022-08-19T23:58:08;21.50;99.90
